Time;durP1;ratioP1;P1;durP2;ratioP2;P2;SDS_P1;SDS_P2;PMS_P1;PMS_P2;Temp;Humidity;BMP_temperature;BMP_pressure;BME280_temperature;BME280_humidity;BME280_pressure;Samples;Min_cycle;Max_cycle;Signal;HPM_P1;HPM_P2
2023/11/28 00:01:00;;;;;;;7.93;3.37;;;0.70;99.90;;;;;;5093016;28;20464;-58
2023/11/28 00:03:25;;;;;;;7.27;3.60;;;0.80;99.90;;;;;;5092914;28;20035;-57
2023/11/28 00:05:51;;;;;;;5.90;3.63;;;0.70;99.90;;;;;;5093006;28;20027;-58
2023/11/28 00:08:20;;;;;;;9.07;4.20;;;0.80;99.90;;;;;;5093088;28;20344;-58
2023/11/28 00:10:46;;;;;;;8.10;3.70;;;0.80;99.90;;;;;;5092651;28;20430;-57
2023/11/28 00:13:11;;;;;;;8.87;4.03;;;0.80;99.90;;;;;;5087098;28;20032;-57
2023/11/28 00:15:37;;;;;;;8.53;3.73;;;0.80;99.90;;;;;;5072230;28;20064;-56
2023/11/28 00:18:03;;;;;;;10.37;4.17;;;0.80;99.90;;;;;;5072743;28;20054;-59
2023/11/28 00:20:29;;;;;;;6.50;3.53;;;0.80;99.90;;;;;;5072170;28;20088;-59
2023/11/28 00:22:54;;;;;;;8.67;4.17;;;0.90;99.90;;;;;;5072581;28;20036;-59
2023/11/28 00:25:20;;;;;;;7.83;3.40;;;0.90;99.90;;;;;;5072249;28;20032;-59
2023/11/28 00:27:46;;;;;;;9.50;4.33;;;1.00;99.90;;;;;;5054068;28;20047;-59
2023/11/28 00:30:14;;;;;;;8.33;4.23;;;1.00;99.90;;;;;;5053890;28;20111;-58
2023/11/28 00:32:39;;;;;;;6.20;3.80;;;1.00;99.90;;;;;;5054495;28;20028;-54
2023/11/28 00:35:05;;;;;;;8.80;3.63;;;1.00;99.90;;;;;;5053942;28;20032;-59
2023/11/28 00:37:32;;;;;;;9.33;4.43;;;1.00;99.90;;;;;;5072213;28;20024;-54
2023/11/28 00:39:58;;;;;;;6.70;3.50;;;1.00;99.90;;;;;;5071926;28;20017;-59
2023/11/28 00:42:25;;;;;;;6.57;3.80;;;1.00;99.90;;;;;;5079655;28;20032;-55
2023/11/28 00:44:51;;;;;;;7.63;3.93;;;1.10;99.90;;;;;;5073779;28;20032;-57
2023/11/28 00:47:17;;;;;;;6.37;3.27;;;1.10;99.90;;;;;;5073960;28;20020;-59
2023/11/28 00:49:43;;;;;;;6.10;3.73;;;1.10;99.90;;;;;;5073399;28;20051;-57
2023/11/28 00:52:10;;;;;;;7.90;3.50;;;1.10;99.90;;;;;;5092054;28;20100;-59
2023/11/28 00:54:36;;;;;;;6.30;3.20;;;1.10;99.90;;;;;;5073118;28;20424;-59
2023/11/28 00:57:03;;;;;;;5.90;3.40;;;1.10;99.90;;;;;;5073541;28;20214;-60
2023/11/28 00:59:28;;;;;;;7.27;3.30;;;1.20;99.90;;;;;;5073033;28;20020;-59
2023/11/28 01:01:54;;;;;;;6.60;3.07;;;1.20;99.90;;;;;;5073065;28;20101;-60
2023/11/28 01:04:19;;;;;;;6.33;3.40;;;1.10;99.90;;;;;;5073374;28;20123;-60
2023/11/28 01:06:45;;;;;;;5.60;3.20;;;1.10;99.90;;;;;;5056761;28;20034;-60
2023/11/28 01:09:14;;;;;;;4.90;2.83;;;1.10;99.90;;;;;;5091680;28;20061;-60
2023/11/28 01:11:40;;;;;;;6.18;3.03;;;1.10;99.90;;;;;;5091717;28;20027;-60
2023/11/28 01:14:07;;;;;;;5.63;2.80;;;1.10;99.90;;;;;;5072920;28;20504;-60
2023/11/28 01:16:33;;;;;;;5.97;2.97;;;1.20;99.90;;;;;;5056462;28;20081;-60
2023/11/28 01:18:58;;;;;;;3.90;2.17;;;1.20;99.90;;;;;;5052995;28;20040;-60
2023/11/28 01:21:24;;;;;;;7.43;2.70;;;1.10;99.90;;;;;;5070984;28;20024;-60
2023/11/28 01:23:50;;;;;;;5.17;2.60;;;1.10;99.90;;;;;;5070819;28;20392;-60
2023/11/28 01:26:17;;;;;;;4.77;2.33;;;1.20;99.90;;;;;;5070997;28;20047;-60
2023/11/28 01:28:43;;;;;;;4.30;2.60;;;1.10;99.90;;;;;;5070644;28;20133;-59
2023/11/28 01:31:11;;;;;;;3.70;1.90;;;1.10;99.90;;;;;;5070754;28;20024;-59
2023/11/28 01:33:38;;;;;;;4.30;2.13;;;1.20;99.90;;;;;;5079880;28;20126;-59
2023/11/28 01:36:07;;;;;;;4.47;2.27;;;1.20;99.90;;;;;;5090753;28;20119;-60
2023/11/28 01:38:33;;;;;;;4.25;2.30;;;1.20;99.90;;;;;;5091012;28;20020;-59
2023/11/28 01:41:01;;;;;;;4.57;2.33;;;1.20;99.90;;;;;;5090601;28;20506;-57
2023/11/28 01:43:29;;;;;;;5.18;2.50;;;1.20;99.90;;;;;;5090851;28;20101;-59
2023/11/28 01:45:55;;;;;;;4.87;2.43;;;1.20;99.90;;;;;;5090531;28;20024;-59
2023/11/28 01:48:22;;;;;;;5.37;2.60;;;1.20;99.90;;;;;;5072705;28;20275;-60
2023/11/28 01:50:49;;;;;;;5.30;3.10;;;1.30;99.90;;;;;;5071926;28;20698;-59
2023/11/28 01:53:19;;;;;;;4.87;2.50;;;1.20;99.90;;;;;;5090897;28;20055;-59
2023/11/28 01:55:45;;;;;;;5.07;2.73;;;1.20;99.90;;;;;;5090229;28;20028;-59
2023/11/28 01:58:11;;;;;;;6.67;3.43;;;1.20;99.90;;;;;;5072490;28;20039;-60
2023/11/28 02:00:37;;;;;;;6.07;3.23;;;1.20;99.90;;;;;;5072116;28;20026;-58
2023/11/28 02:03:06;;;;;;;6.50;3.27;;;1.20;99.90;;;;;;5072542;28;20337;-59
2023/11/28 02:05:32;;;;;;;6.70;3.47;;;1.20;99.90;;;;;;5090465;28;20028;-57
2023/11/28 02:07:59;;;;;;;6.10;3.20;;;1.20;99.90;;;;;;5072367;28;20062;-60
2023/11/28 02:10:27;;;;;;;6.93;3.53;;;1.20;99.90;;;;;;5090287;28;20024;-58
2023/11/28 02:12:52;;;;;;;6.37;3.83;;;1.10;99.90;;;;;;5071431;28;20031;-60
2023/11/28 02:15:41;;;;;;;7.00;3.97;;;1.20;99.90;;;;;;5072411;28;20353;-59
2023/11/28 02:18:09;;;;;;;7.75;3.60;;;1.10;99.90;;;;;;5072335;28;20024;-59
2023/11/28 02:20:35;;;;;;;5.80;3.37;;;1.00;99.90;;;;;;5090000;28;20086;-59
2023/11/28 02:23:01;;;;;;;6.47;3.60;;;1.10;99.90;;;;;;5072234;28;20397;-57
2023/11/28 02:25:30;;;;;;;6.57;3.80;;;1.10;99.90;;;;;;5072035;28;20028;-58
2023/11/28 02:27:56;;;;;;;7.13;3.78;;;1.20;99.90;;;;;;5090624;28;20031;-60
2023/11/28 02:30:22;;;;;;;7.67;3.80;;;1.20;99.90;;;;;;5090291;28;20020;-57
2023/11/28 02:32:47;;;;;;;8.93;3.83;;;1.20;99.90;;;;;;5071865;28;20036;-59
2023/11/28 02:35:13;;;;;;;7.67;4.27;;;1.20;99.90;;;;;;5071605;28;20020;-56
2023/11/28 02:37:38;;;;;;;8.17;4.07;;;1.20;99.90;;;;;;5087040;22;20389;-52
2023/11/28 02:40:05;;;;;;;8.23;4.20;;;1.10;99.90;;;;;;5049021;28;20087;-51
2023/11/28 02:42:31;;;;;;;7.87;4.43;;;1.10;99.90;;;;;;5050477;28;20036;-52
2023/11/28 02:44:57;;;;;;;10.13;4.83;;;1.10;99.90;;;;;;5061736;28;20427;-52
2023/11/28 02:47:23;;;;;;;10.40;5.17;;;1.10;99.90;;;;;;5062852;28;20095;-52
2023/11/28 02:49:48;;;;;;;9.13;4.17;;;1.20;99.90;;;;;;5048773;28;20055;-53
2023/11/28 02:52:14;;;;;;;8.20;4.63;;;1.20;99.90;;;;;;5050500;28;20469;-50
2023/11/28 02:54:40;;;;;;;8.90;4.50;;;1.10;99.90;;;;;;5048959;28;20039;-52
2023/11/28 02:57:06;;;;;;;8.73;5.03;;;1.20;99.90;;;;;;5048981;28;20028;-52
2023/11/28 02:59:32;;;;;;;12.17;4.90;;;1.10;99.90;;;;;;5048342;28;20029;-51
2023/11/28 03:01:58;;;;;;;9.20;4.43;;;1.20;99.90;;;;;;5049067;28;20033;-52
2023/11/28 03:04:23;;;;;;;9.43;5.13;;;1.20;99.90;;;;;;5046857;28;20017;-52
2023/11/28 03:06:49;;;;;;;9.70;5.00;;;1.20;99.90;;;;;;5068909;28;20425;-52
2023/11/28 03:09:14;;;;;;;8.97;5.37;;;1.20;99.90;;;;;;5070353;28;20036;-51
2023/11/28 03:11:40;;;;;;;9.90;5.10;;;1.30;99.90;;;;;;5060872;28;20029;-54
2023/11/28 03:14:06;;;;;;;9.67;5.60;;;1.30;99.90;;;;;;5048395;28;20067;-52
2023/11/28 03:16:31;;;;;;;11.27;5.97;;;1.30;99.90;;;;;;5057722;28;20453;-53
2023/11/28 03:18:57;;;;;;;12.10;6.40;;;1.20;99.90;;;;;;5066799;28;20052;-52
2023/11/28 03:21:23;;;;;;;13.07;5.83;;;1.30;99.90;;;;;;5048384;28;20025;-53
2023/11/28 03:23:48;;;;;;;14.00;6.77;;;1.30;99.90;;;;;;5050303;28;20430;-52
2023/11/28 03:26:15;;;;;;;14.33;7.30;;;1.30;99.90;;;;;;5053804;28;20100;-55
2023/11/28 03:28:40;;;;;;;11.57;6.07;;;1.30;99.90;;;;;;5052325;28;20439;-51
2023/11/28 03:31:06;;;;;;;15.10;7.10;;;1.20;99.90;;;;;;5052101;28;20098;-53
2023/11/28 03:33:33;;;;;;;11.67;6.70;;;1.30;99.90;;;;;;5053616;28;20043;-54
2023/11/28 03:35:59;;;;;;;13.20;7.07;;;1.20;99.90;;;;;;5051971;28;20481;-55
2023/11/28 03:38:24;;;;;;;11.87;6.47;;;1.20;99.90;;;;;;5052162;28;20033;-51
2023/11/28 03:40:50;;;;;;;11.20;6.33;;;1.20;99.90;;;;;;5053385;28;20068;-55
2023/11/28 03:43:16;;;;;;;12.50;6.40;;;1.20;99.90;;;;;;5052203;28;20033;-52
2023/11/28 03:45:41;;;;;;;12.70;6.27;;;1.20;99.90;;;;;;5052392;28;20075;-55
2023/11/28 03:48:07;;;;;;;12.57;6.60;;;1.10;99.90;;;;;;5072050;28;20475;-54
2023/11/28 03:50:33;;;;;;;13.70;7.00;;;1.10;99.90;;;;;;5071651;28;20029;-55
2023/11/28 03:52:59;;;;;;;11.30;6.07;;;1.10;99.90;;;;;;5072054;28;20127;-56
2023/11/28 03:55:24;;;;;;;10.97;5.47;;;1.20;99.90;;;;;;5071762;28;20044;-54
2023/11/28 03:57:50;;;;;;;12.67;6.77;;;1.10;99.90;;;;;;5073237;28;20036;-51
2023/11/28 04:00:16;;;;;;;13.93;6.40;;;1.20;99.90;;;;;;5071606;28;20037;-53
2023/11/28 04:02:42;;;;;;;12.73;6.43;;;1.10;99.90;;;;;;5071539;28;20036;-51
2023/11/28 04:05:09;;;;;;;9.73;5.67;;;1.10;99.90;;;;;;5071529;28;20070;-55
2023/11/28 04:07:35;;;;;;;10.47;5.80;;;1.10;99.90;;;;;;5073243;28;20489;-55
2023/11/28 04:10:01;;;;;;;11.23;5.93;;;1.10;99.90;;;;;;5071457;28;20027;-55
2023/11/28 04:12:27;;;;;;;11.77;5.83;;;1.10;99.90;;;;;;5071517;28;20066;-53
2023/11/28 04:14:53;;;;;;;9.57;5.50;;;1.10;99.90;;;;;;5069202;28;20028;-55
2023/11/28 04:17:19;;;;;;;8.93;5.40;;;1.20;99.90;;;;;;5050461;28;20423;-51
2023/11/28 04:19:46;;;;;;;11.03;5.13;;;1.10;99.90;;;;;;5051305;28;20033;-55
2023/11/28 04:22:11;;;;;;;9.23;5.13;;;1.10;99.90;;;;;;5035257;28;20504;-54
2023/11/28 04:24:39;;;;;;;9.77;5.47;;;1.10;99.90;;;;;;5068057;28;20031;-52
2023/11/28 04:27:05;;;;;;;11.97;5.80;;;1.00;99.90;;;;;;5072802;28;20028;-55
2023/11/28 04:29:31;;;;;;;9.63;5.70;;;1.00;99.90;;;;;;5071064;28;20021;-54
2023/11/28 04:31:58;;;;;;;11.50;5.53;;;1.00;99.90;;;;;;5071093;28;20120;-50
2023/11/28 04:34:24;;;;;;;10.73;5.27;;;1.10;99.90;;;;;;5071127;28;20048;-54
2023/11/28 04:36:50;;;;;;;10.17;5.30;;;1.20;99.90;;;;;;5068930;28;20138;-53
2023/11/28 04:39:16;;;;;;;9.60;5.30;;;1.20;99.90;;;;;;5050880;28;20036;-50
2023/11/28 04:41:44;;;;;;;11.07;5.93;;;1.10;99.90;;;;;;5050106;28;20029;-50
2023/11/28 04:44:10;;;;;;;9.43;5.33;;;1.10;99.90;;;;;;5049519;28;20549;-50
2023/11/28 04:46:35;;;;;;;11.17;5.83;;;1.20;99.90;;;;;;5050789;28;20071;-53
2023/11/28 04:49:01;;;;;;;10.30;5.53;;;1.10;99.90;;;;;;5049948;28;20458;-53
2023/11/28 04:51:27;;;;;;;9.97;5.07;;;1.20;99.90;;;;;;5065505;28;20050;-54
2023/11/28 04:53:54;;;;;;;11.40;5.33;;;1.20;99.90;;;;;;5068064;28;20502;-52
2023/11/28 04:56:20;;;;;;;8.47;4.43;;;1.20;99.90;;;;;;5052070;28;20029;-51
2023/11/28 04:58:45;;;;;;;8.83;4.53;;;1.20;99.90;;;;;;5059659;28;20443;-51
2023/11/28 05:01:11;;;;;;;11.23;4.43;;;1.20;99.90;;;;;;5070400;28;20665;-52
2023/11/28 05:03:37;;;;;;;8.47;4.87;;;1.10;99.90;;;;;;5070565;28;20552;-55
2023/11/28 05:06:02;;;;;;;10.20;4.93;;;1.10;99.90;;;;;;5070480;28;20039;-54
2023/11/28 05:08:28;;;;;;;9.97;4.70;;;1.10;99.90;;;;;;5070668;28;20027;-51
2023/11/28 05:10:54;;;;;;;8.70;4.60;;;1.10;99.90;;;;;;5070254;28;20032;-53
2023/11/28 05:13:19;;;;;;;8.37;4.70;;;1.10;99.90;;;;;;5070580;28;20130;-54
2023/11/28 05:15:45;;;;;;;8.97;4.60;;;1.10;99.90;;;;;;5069963;28;20059;-53
2023/11/28 05:18:11;;;;;;;8.70;4.57;;;1.10;99.90;;;;;;5059610;28;20021;-52
2023/11/28 05:20:37;;;;;;;9.47;4.67;;;1.10;99.90;;;;;;5051568;28;20408;-52
2023/11/28 05:23:03;;;;;;;8.20;4.20;;;1.10;99.90;;;;;;5050271;28;20033;-51
2023/11/28 05:25:29;;;;;;;8.07;4.57;;;1.00;99.90;;;;;;5050074;28;20628;-52
2023/11/28 05:27:57;;;;;;;11.70;5.23;;;1.00;99.90;;;;;;5050167;28;20119;-55
2023/11/28 05:30:23;;;;;;;9.23;5.00;;;1.00;99.90;;;;;;5049708;28;20151;-55
2023/11/28 05:32:49;;;;;;;11.43;5.40;;;1.10;99.90;;;;;;5050133;28;20100;-53
2023/11/28 05:35:15;;;;;;;8.77;5.07;;;1.10;99.90;;;;;;5049744;28;20052;-55
2023/11/28 05:37:40;;;;;;;9.53;4.83;;;1.10;99.90;;;;;;5051299;28;20039;-51
2023/11/28 05:40:08;;;;;;;9.60;5.00;;;1.10;99.90;;;;;;5049462;28;20036;-53
2023/11/28 05:42:34;;;;;;;9.17;4.33;;;1.10;99.90;;;;;;5049707;28;20036;-53
2023/11/28 05:45:00;;;;;;;10.40;4.63;;;1.10;99.90;;;;;;5050724;28;20033;-52
2023/11/28 05:47:26;;;;;;;9.00;4.20;;;1.10;99.90;;;;;;5055774;28;20036;-54
2023/11/28 05:49:52;;;;;;;9.50;4.90;;;1.10;99.90;;;;;;5054335;28;20025;-53
2023/11/28 05:52:19;;;;;;;10.20;5.07;;;1.10;99.90;;;;;;5049774;28;20477;-52
2023/11/28 05:54:45;;;;;;;7.57;4.27;;;1.10;99.90;;;;;;5049316;28;20021;-50
2023/11/28 05:57:11;;;;;;;7.87;4.20;;;1.00;99.90;;;;;;5049579;28;20031;-50
2023/11/28 05:59:37;;;;;;;7.47;4.27;;;1.00;99.90;;;;;;5055522;28;20060;-49
2023/11/28 06:02:04;;;;;;;8.97;4.40;;;1.00;99.90;;;;;;5049087;28;20120;-51
2023/11/28 06:04:31;;;;;;;12.87;4.77;;;1.10;99.90;;;;;;5049261;28;20017;-53
2023/11/28 06:06:58;;;;;;;7.70;4.00;;;1.00;99.90;;;;;;5049256;28;20059;-54
2023/11/28 06:09:24;;;;;;;10.57;4.03;;;1.00;99.90;;;;;;5050576;28;20053;-55
2023/11/28 06:11:51;;;;;;;6.80;4.07;;;0.90;99.90;;;;;;5049126;28;20113;-49
2023/11/28 06:14:17;;;;;;;9.60;3.57;;;1.00;99.90;;;;;;5049127;28;20116;-49
2023/11/28 06:16:42;;;;;;;7.93;3.70;;;0.90;99.90;;;;;;5049095;28;20108;-54
2023/11/28 06:19:08;;;;;;;6.47;3.17;;;1.00;99.90;;;;;;5060608;28;20414;-53
2023/11/28 06:21:35;;;;;;;5.67;3.13;;;0.90;99.90;;;;;;5069122;28;20378;-55
2023/11/28 06:24:01;;;;;;;6.80;2.90;;;0.90;99.90;;;;;;5068864;28;20032;-52
2023/11/28 06:26:27;;;;;;;6.97;2.80;;;0.90;99.90;;;;;;5070718;28;20415;-54
2023/11/28 06:28:52;;;;;;;6.27;2.90;;;0.90;99.90;;;;;;5070531;28;20392;-54
2023/11/28 06:31:20;;;;;;;4.77;2.57;;;0.80;99.90;;;;;;5057973;28;20017;-54
2023/11/28 06:33:46;;;;;;;5.43;2.33;;;0.80;99.90;;;;;;5050694;28;20099;-54
2023/11/28 06:36:13;;;;;;;4.90;2.73;;;0.80;99.90;;;;;;5049069;28;20374;-53
2023/11/28 06:38:38;;;;;;;5.70;2.57;;;0.70;99.90;;;;;;5057610;28;20027;-51
2023/11/28 06:41:04;;;;;;;3.93;2.20;;;0.70;99.90;;;;;;5070048;28;20384;-52
2023/11/28 06:43:30;;;;;;;6.07;2.40;;;0.60;99.90;;;;;;5070359;28;20032;-53
2023/11/28 06:45:59;;;;;;;4.57;2.23;;;0.50;99.90;;;;;;5068869;28;20075;-51
2023/11/28 06:48:25;;;;;;;5.28;2.58;;;0.60;99.90;;;;;;5070458;28;20384;-51
2023/11/28 06:50:51;;;;;;;5.23;2.47;;;0.60;99.90;;;;;;5054886;28;20035;-52
2023/11/28 06:53:16;;;;;;;5.10;2.20;;;0.50;99.90;;;;;;5050332;28;20037;-50
2023/11/28 06:55:42;;;;;;;4.13;2.20;;;0.50;99.90;;;;;;5050103;28;20119;-50
2023/11/28 06:58:08;;;;;;;4.33;2.27;;;0.50;99.90;;;;;;5050315;28;20044;-55
2023/11/28 07:00:33;;;;;;;5.70;2.40;;;0.60;99.90;;;;;;5053585;28;20424;-49
2023/11/28 07:02:59;;;;;;;3.70;1.70;;;0.50;99.90;;;;;;5054348;28;20182;-54
2023/11/28 07:05:24;;;;;;;4.17;2.07;;;0.50;99.90;;;;;;5052627;28;20029;-51
2023/11/28 07:07:50;;;;;;;5.10;2.30;;;0.40;99.90;;;;;;5054177;28;20384;-53
2023/11/28 07:10:16;;;;;;;7.27;2.23;;;0.40;99.90;;;;;;5053800;28;20025;-51
2023/11/28 07:12:41;;;;;;;5.23;2.23;;;0.40;99.90;;;;;;5054263;28;20120;-50
2023/11/28 07:15:07;;;;;;;4.50;1.90;;;0.30;99.90;;;;;;5053808;28;20462;-53
2023/11/28 07:17:33;;;;;;;7.07;2.07;;;0.20;99.90;;;;;;5054127;28;20079;-50
2023/11/28 07:19:59;;;;;;;2.87;1.47;;;0.20;99.90;;;;;;5054128;28;20343;-50
2023/11/28 07:22:26;;;;;;;4.20;1.67;;;0.10;99.90;;;;;;5053912;28;20041;-49
2023/11/28 07:24:51;;;;;;;3.23;1.70;;;0.10;99.90;;;;;;5070594;28;20103;-52
2023/11/28 07:27:17;;;;;;;3.43;1.93;;;0.00;99.90;;;;;;5074088;28;20098;-52
2023/11/28 07:29:43;;;;;;;2.80;1.37;;;-0.10;99.90;;;;;;5073690;28;20396;-51
2023/11/28 07:32:08;;;;;;;5.07;1.93;;;-0.10;99.90;;;;;;5073692;28;20028;-51
2023/11/28 07:34:34;;;;;;;4.93;2.00;;;-0.10;99.90;;;;;;5073541;28;20027;-51
2023/11/28 07:37:00;;;;;;;3.43;1.80;;;-0.10;99.90;;;;;;5073620;28;20392;-52
2023/11/28 07:39:26;;;;;;;4.73;1.70;;;-0.10;99.90;;;;;;5073121;28;20029;-50
2023/11/28 07:41:51;;;;;;;4.10;1.93;;;-0.10;99.90;;;;;;5065135;28;20131;-52
2023/11/28 07:44:17;;;;;;;4.43;1.83;;;0.00;99.90;;;;;;5053370;28;20025;-50
2023/11/28 07:46:42;;;;;;;4.93;2.13;;;-0.10;99.90;;;;;;5053497;28;20426;-51
2023/11/28 07:49:08;;;;;;;3.70;2.03;;;0.00;99.90;;;;;;5051864;28;20040;-50
2023/11/28 07:51:34;;;;;;;4.43;1.80;;;0.00;99.90;;;;;;5053545;28;20112;-51
2023/11/28 07:53:59;;;;;;;3.77;1.70;;;0.00;99.90;;;;;;5052967;28;20029;-50
2023/11/28 07:56:25;;;;;;;5.20;2.30;;;0.00;99.90;;;;;;5058080;28;20489;-49
2023/11/28 07:58:50;;;;;;;4.70;1.97;;;-0.10;99.90;;;;;;5073252;28;20028;-50
2023/11/28 08:01:16;;;;;;;4.77;2.07;;;-0.10;99.90;;;;;;5073023;28;20508;-50
2023/11/28 08:03:42;;;;;;;2.97;1.53;;;-0.10;99.90;;;;;;5072910;28;20076;-50
2023/11/28 08:06:08;;;;;;;4.73;2.20;;;-0.10;99.90;;;;;;5073004;28;20078;-51
2023/11/28 08:08:34;;;;;;;6.07;2.57;;;0.00;99.90;;;;;;5072670;28;20025;-51
2023/11/28 08:11:00;;;;;;;6.07;2.10;;;0.00;99.90;;;;;;5071788;28;20481;-55
2023/11/28 08:13:25;;;;;;;6.77;2.03;;;0.00;99.90;;;;;;5073309;28;20024;-52
2023/11/28 08:15:52;;;;;;;3.80;1.80;;;0.10;99.90;;;;;;5071133;28;20028;-54
2023/11/28 08:18:19;;;;;;;5.50;1.70;;;0.20;99.90;;;;;;5072464;28;20029;-51
2023/11/28 08:20:45;;;;;;;5.07;2.23;;;0.20;99.90;;;;;;5056793;28;20517;-50
2023/11/28 08:23:10;;;;;;;5.27;1.97;;;0.30;99.90;;;;;;5052680;28;20043;-51
2023/11/28 08:25:36;;;;;;;3.50;1.90;;;0.40;99.90;;;;;;5052176;28;20029;-51
2023/11/28 08:28:02;;;;;;;6.23;2.37;;;0.40;99.90;;;;;;5061124;28;20063;-49
2023/11/28 08:30:29;;;;;;;4.53;1.73;;;0.40;99.90;;;;;;5052468;28;20389;-50
2023/11/28 08:32:55;;;;;;;5.83;2.00;;;0.40;99.90;;;;;;5053363;28;20037;-56
2023/11/28 08:35:21;;;;;;;4.13;1.93;;;0.50;99.90;;;;;;5072564;28;20036;-53
2023/11/28 08:37:46;;;;;;;4.23;1.80;;;0.50;99.90;;;;;;5072434;28;20072;-52
2023/11/28 08:40:12;;;;;;;4.47;1.77;;;0.50;99.90;;;;;;5069661;28;20461;-57
2023/11/28 08:42:38;;;;;;;5.37;2.27;;;0.50;99.90;;;;;;5065826;28;20070;-53
2023/11/28 08:45:04;;;;;;;6.67;2.20;;;0.60;99.90;;;;;;5071836;28;20032;-53
2023/11/28 08:47:30;;;;;;;6.63;2.07;;;0.60;99.90;;;;;;5072196;28;20016;-54
2023/11/28 08:49:59;;;;;;;6.23;2.30;;;0.70;99.90;;;;;;5072118;28;20044;-54
2023/11/28 08:52:26;;;;;;;3.80;1.85;;;0.70;99.90;;;;;;5071996;28;20109;-52
2023/11/28 08:54:53;;;;;;;4.33;1.57;;;0.80;99.90;;;;;;5071502;28;20029;-51
2023/11/28 08:57:19;;;;;;;2.83;1.47;;;0.80;99.90;;;;;;5071562;28;20475;-51
2023/11/28 08:59:44;;;;;;;3.67;1.70;;;0.90;99.90;;;;;;5071215;28;20362;-53
2023/11/28 09:02:10;;;;;;;4.77;1.77;;;0.90;99.90;;;;;;5071385;28;20044;-53
2023/11/28 09:04:36;;;;;;;4.20;1.73;;;1.00;99.90;;;;;;5071078;28;20032;-53
2023/11/28 09:07:01;;;;;;;4.83;1.87;;;1.00;99.90;;;;;;5070962;28;20468;-55
2023/11/28 09:09:27;;;;;;;5.73;1.60;;;1.10;99.90;;;;;;5058514;28;20052;-55
2023/11/28 09:11:53;;;;;;;3.00;1.50;;;1.10;99.90;;;;;;5051201;28;20111;-56
2023/11/28 09:14:19;;;;;;;4.80;1.73;;;1.20;99.90;;;;;;5050984;28;20068;-56
2023/11/28 09:16:45;;;;;;;5.90;1.77;;;1.40;99.90;;;;;;5051317;28;20126;-51
2023/11/28 09:19:11;;;;;;;3.97;1.70;;;1.60;99.90;;;;;;5052627;28;20058;-53
2023/11/28 09:21:36;;;;;;;4.83;2.17;;;1.80;99.90;;;;;;5070834;28;20074;-51
2023/11/28 09:24:03;;;;;;;3.87;1.73;;;2.00;99.90;;;;;;5071082;28;20031;-52
2023/11/28 09:26:28;;;;;;;4.27;2.03;;;2.10;99.90;;;;;;5071053;28;20025;-50
2023/11/28 09:28:54;;;;;;;4.43;1.90;;;2.20;99.90;;;;;;5071049;28;20020;-50
2023/11/28 09:31:25;;;;;;;4.00;1.40;;;2.40;99.90;;;;;;5070950;28;20667;-56
2023/11/28 09:33:52;;;;;;;3.30;1.67;;;2.50;99.90;;;;;;5064005;28;20489;-55
2023/11/28 09:36:20;;;;;;;4.23;1.90;;;2.60;99.90;;;;;;5052679;28;20029;-50
2023/11/28 09:38:45;;;;;;;3.63;1.50;;;2.70;99.90;;;;;;5058628;28;20041;-54
2023/11/28 09:41:27;;;;;;;3.77;1.83;;;2.90;99.90;;;;;;5073681;28;20081;-51
2023/11/28 09:43:53;;;;;;;5.07;1.50;;;2.70;99.90;;;;;;5051081;28;20031;-54
2023/11/28 09:46:22;;;;;;;2.87;1.60;;;2.60;99.90;;;;;;5051350;28;20470;-52
2023/11/28 09:48:53;;;;;;;4.43;1.77;;;2.40;99.90;;;;;;5050966;28;20052;-53
2023/11/28 09:51:20;;;;;;;4.30;1.70;;;2.40;99.90;;;;;;5050819;28;20436;-51
2023/11/28 09:53:48;;;;;;;3.50;1.77;;;2.40;99.90;;;;;;5049332;28;20367;-54
2023/11/28 09:56:18;;;;;;;4.95;2.00;;;2.40;99.90;;;;;;5050745;28;20055;-51
2023/11/28 09:58:45;;;;;;;8.23;3.30;;;2.30;99.90;;;;;;5050869;28;20035;-52
2023/11/28 10:01:13;;;;;;;4.47;2.10;;;2.30;99.90;;;;;;5050141;28;20036;-52
2023/11/28 10:03:40;;;;;;;4.78;2.00;;;2.20;99.90;;;;;;5050419;28;20044;-51
2023/11/28 10:06:11;;;;;;;4.00;2.03;;;2.20;99.90;;;;;;5050667;28;20094;-55
2023/11/28 10:08:39;;;;;;;4.20;2.23;;;2.20;99.90;;;;;;5070557;28;20029;-51
2023/11/28 10:11:06;;;;;;;5.27;2.30;;;2.10;99.90;;;;;;5049190;28;20035;-51
2023/11/28 10:13:31;;;;;;;5.23;2.10;;;2.10;99.90;;;;;;5046940;28;20044;-53
2023/11/28 10:15:59;;;;;;;5.53;2.00;;;2.10;99.90;;;;;;5048784;28;20044;-50
2023/11/28 10:18:25;;;;;;;4.97;2.37;;;2.20;99.90;;;;;;5046405;28;20620;-51
2023/11/28 10:20:51;;;;;;;3.93;1.93;;;2.20;99.90;;;;;;5046900;28;20032;-50
2023/11/28 10:23:18;;;;;;;4.60;2.10;;;2.20;99.90;;;;;;5053309;28;20048;-52
2023/11/28 10:25:43;;;;;;;3.43;1.80;;;2.20;99.90;;;;;;5047290;28;20079;-49
2023/11/28 10:28:12;;;;;;;3.70;1.63;;;2.20;99.90;;;;;;5047421;28;20029;-51
2023/11/28 10:30:40;;;;;;;4.35;1.90;;;2.20;99.90;;;;;;5046136;28;20208;-53
2023/11/28 10:33:09;;;;;;;6.27;2.20;;;2.20;99.90;;;;;;5046914;28;20237;-51
2023/11/28 10:35:42;;;;;;;5.30;1.58;;;2.20;99.90;;;;;;5046795;28;20528;-51
2023/11/28 10:38:15;;;;;;;3.03;1.53;;;2.20;99.90;;;;;;5046928;28;20059;-50
2023/11/28 10:40:50;;;;;;;4.47;1.30;;;2.20;99.90;;;;;;5049884;28;20428;-57
2023/11/28 10:43:16;;;;;;;3.43;1.50;;;2.20;99.90;;;;;;5066205;28;20040;-55
2023/11/28 10:45:45;;;;;;;1.77;1.13;;;2.20;99.90;;;;;;5048353;28;20048;-53
2023/11/28 10:48:12;;;;;;;2.83;1.38;;;2.20;99.90;;;;;;5046493;28;20036;-55
2023/11/28 10:50:38;;;;;;;2.00;1.10;;;2.20;99.90;;;;;;5048609;28;20027;-52
2023/11/28 10:53:04;;;;;;;3.00;1.50;;;2.20;99.90;;;;;;5048195;28;20116;-52
2023/11/28 10:55:38;;;;;;;2.83;1.50;;;2.20;99.90;;;;;;5046329;28;20033;-56
2023/11/28 10:58:17;;;;;;;3.17;1.63;;;2.20;99.90;;;;;;5049090;28;20040;-52
2023/11/28 11:00:52;;;;;;;3.22;1.48;;;2.20;99.90;;;;;;5046564;28;20025;-57
2023/11/28 11:04:04;;;;;;;3.07;1.40;;;2.20;99.90;;;;;;5046466;28;20033;-54
2023/11/28 11:06:30;;;;;;;4.13;1.77;;;2.20;99.90;;;;;;5051071;28;20040;-55
2023/11/28 11:08:58;;;;;;;3.70;1.40;;;2.20;99.90;;;;;;5048907;28;20241;-51
2023/11/28 11:11:24;;;;;;;2.70;1.30;;;2.20;99.90;;;;;;5049727;28;20029;-54
2023/11/28 11:14:00;;;;;;;3.63;1.40;;;2.10;99.90;;;;;;5049872;28;20128;-50
2023/11/28 11:16:39;;;;;;;4.90;1.70;;;2.10;99.90;;;;;;5048183;28;20060;-54
2023/11/28 11:19:05;;;;;;;3.13;1.43;;;2.10;99.90;;;;;;5049659;28;20025;-53
2023/11/28 11:21:42;;;;;;;3.23;1.60;;;2.00;99.90;;;;;;5049996;28;20025;-53
2023/11/28 11:24:20;;;;;;;2.30;1.40;;;2.00;99.90;;;;;;5049309;28;20064;-53
2023/11/28 11:26:49;;;;;;;3.37;1.50;;;2.10;99.90;;;;;;5048629;28;20144;-54
2023/11/28 11:29:24;;;;;;;2.83;1.48;;;2.30;99.90;;;;;;5049569;28;20151;-52
2023/11/28 11:31:50;;;;;;;2.70;1.70;;;2.60;99.90;;;;;;5049626;28;20029;-52
2023/11/28 11:34:35;;;;;;;3.47;1.70;;;2.80;99.90;;;;;;5049397;28;20051;-51
2023/11/28 11:37:21;;;;;;;4.33;1.77;;;3.10;99.90;;;;;;5049258;28;20037;-51
2023/11/28 11:39:51;;;;;;;2.97;1.53;;;3.40;99.90;;;;;;5049494;28;20045;-51
2023/11/28 11:42:18;;;;;;;3.13;1.60;;;3.80;99.90;;;;;;5049269;28;20040;-50
2023/11/28 11:44:56;;;;;;;3.33;1.87;;;4.10;99.90;;;;;;5049636;28;20029;-55
2023/11/28 11:47:24;;;;;;;4.33;1.53;;;4.20;99.90;;;;;;5053098;28;20468;-51
2023/11/28 11:49:51;;;;;;;3.47;1.70;;;4.30;99.90;;;;;;5052535;28;20060;-53
2023/11/28 11:52:19;;;;;;;2.83;1.57;;;4.20;99.90;;;;;;5053363;28;20028;-50
2023/11/28 11:54:46;;;;;;;2.40;1.30;;;4.10;99.90;;;;;;5068026;28;20037;-53
2023/11/28 11:57:12;;;;;;;1.93;1.17;;;4.00;99.90;;;;;;5064198;28;20021;-54
2023/11/28 11:59:41;;;;;;;3.40;1.43;;;4.10;99.90;;;;;;5050892;28;20033;-52
2023/11/28 12:02:08;;;;;;;1.93;1.37;;;4.30;99.90;;;;;;5051488;28;20121;-52
2023/11/28 12:04:44;;;;;;;2.03;1.37;;;4.60;99.90;;;;;;5050390;28;20060;-51
2023/11/28 12:07:14;;;;;;;2.93;1.50;;;4.90;99.90;;;;;;5051536;28;20037;-52
2023/11/28 12:09:41;;;;;;;2.90;1.20;;;4.90;99.90;;;;;;5053081;28;20029;-51
2023/11/28 12:12:14;;;;;;;2.70;1.30;;;4.80;99.90;;;;;;5051903;28;20083;-53
2023/11/28 12:14:40;;;;;;;2.43;1.40;;;4.80;99.90;;;;;;5052016;28;20032;-53
2023/11/28 12:17:06;;;;;;;2.53;1.50;;;4.80;99.90;;;;;;5053178;28;20053;-51
2023/11/28 12:19:33;;;;;;;3.57;1.43;;;5.30;99.90;;;;;;5052479;28;20442;-53
2023/11/28 12:22:02;;;;;;;2.17;1.13;;;5.80;99.90;;;;;;5050674;28;20013;-50
2023/11/28 12:24:28;;;;;;;3.17;1.45;;;5.70;99.90;;;;;;5051119;28;20043;-55
2023/11/28 12:26:56;;;;;;;2.87;1.20;;;5.50;99.90;;;;;;5051504;28;20062;-54
2023/11/28 12:29:22;;;;;;;2.37;1.20;;;5.20;99.90;;;;;;5046218;28;20025;-55
2023/11/28 12:31:47;;;;;;;4.07;1.60;;;4.90;99.90;;;;;;5050999;28;20076;-52
2023/11/28 12:34:13;;;;;;;2.47;1.40;;;4.60;99.90;;;;;;5050820;28;20136;-52
2023/11/28 12:36:45;;;;;;;2.40;1.13;;;4.30;99.90;;;;;;5061051;28;20404;-52
2023/11/28 12:39:14;;;;;;;2.40;1.03;;;4.00;99.90;;;;;;5058243;28;20478;-50
2023/11/28 12:41:43;;;;;;;1.90;0.90;;;3.70;99.90;;;;;;5055761;28;20077;-51
2023/11/28 12:44:10;;;;;;;2.25;1.27;;;3.50;99.90;;;;;;5071758;28;20448;-50
2023/11/28 12:46:40;;;;;;;1.70;0.70;;;3.30;99.90;;;;;;5072087;28;20020;-55
2023/11/28 12:49:07;;;;;;;1.83;1.20;;;3.20;99.90;;;;;;5072205;28;20029;-52
2023/11/28 12:51:33;;;;;;;2.10;1.10;;;3.10;99.90;;;;;;5071991;28;20033;-50
2023/11/28 12:54:01;;;;;;;1.97;1.10;;;3.10;99.90;;;;;;5071803;28;20036;-50